createdAt,value
2023-05-12T00:00:48.515Z,3.58
2023-05-12T00:03:18.141Z,3.53
2023-05-12T00:05:46.500Z,3.83
2023-05-12T00:08:14.871Z,3.20
2023-05-12T00:10:43.196Z,3.42
2023-05-12T00:13:11.607Z,3.03
2023-05-12T00:15:40.078Z,3.15
2023-05-12T00:18:08.242Z,3.08
2023-05-12T00:20:37.783Z,3.45
2023-05-12T00:23:05.987Z,3.20
2023-05-12T00:25:34.397Z,3.13
2023-05-12T00:28:02.942Z,2.50
2023-05-12T00:30:31.175Z,2.80
2023-05-12T00:32:59.830Z,2.70
2023-05-12T00:35:28.496Z,3.00
2023-05-12T00:37:58.634Z,3.10
2023-05-12T00:40:26.885Z,2.85
2023-05-12T00:42:55.039Z,2.92
2023-05-12T00:45:23.814Z,3.13
2023-05-12T00:47:53.239Z,3.00
2023-05-12T00:50:22.308Z,3.13
2023-05-12T00:52:51.345Z,3.20
2023-05-12T00:55:21.675Z,3.08
2023-05-12T00:57:49.975Z,3.70
2023-05-12T01:00:18.730Z,3.30
2023-05-12T01:02:47.835Z,3.60
2023-05-12T01:05:16.364Z,3.70
2023-05-12T01:07:45.539Z,3.67
2023-05-12T01:10:22.648Z,3.90
2023-05-12T01:12:51.196Z,4.07
2023-05-12T01:15:19.781Z,3.95
2023-05-12T01:17:54.731Z,3.47
2023-05-12T01:20:26.751Z,3.78
2023-05-12T01:22:56.244Z,4.00
2023-05-12T01:25:27.927Z,3.75
2023-05-12T01:27:57.908Z,3.83
2023-05-12T01:30:27.310Z,3.63
2023-05-12T01:32:56.248Z,3.90
2023-05-12T01:35:24.527Z,3.75
2023-05-12T01:37:53.635Z,3.88
2023-05-12T01:40:22.089Z,3.55
2023-05-12T01:42:50.734Z,3.45
2023-05-12T01:45:20.420Z,3.85
2023-05-12T01:47:51.976Z,3.42
2023-05-12T01:50:21.167Z,3.90
2023-05-12T01:52:49.805Z,3.42
2023-05-12T01:55:18.523Z,4.07
2023-05-12T01:57:46.814Z,4.20
2023-05-12T02:00:15.566Z,4.10
2023-05-12T02:02:46.023Z,4.60
2023-05-12T02:05:14.325Z,4.53
2023-05-12T02:07:42.773Z,4.55
2023-05-12T02:10:11.429Z,4.32
2023-05-12T02:12:39.820Z,4.45
2023-05-12T02:15:08.679Z,4.28
2023-05-12T02:17:37.273Z,4.72
2023-05-12T02:20:09.426Z,5.07
2023-05-12T02:22:37.583Z,5.20
2023-05-12T02:25:06.740Z,5.05
2023-05-12T02:27:34.873Z,4.30
2023-05-12T02:30:03.303Z,4.88
2023-05-12T02:32:31.611Z,4.40
2023-05-12T02:34:59.860Z,4.55
2023-05-12T02:37:29.423Z,4.47
2023-05-12T02:39:57.733Z,5.05
2023-05-12T02:42:28.812Z,4.72
2023-05-12T02:44:57.081Z,4.80
2023-05-12T02:47:25.384Z,4.47
2023-05-12T02:49:55.565Z,4.65
2023-05-12T02:52:24.092Z,4.88
2023-05-12T02:54:53.560Z,4.18
2023-05-12T02:57:21.756Z,4.75
2023-05-12T02:59:49.927Z,4.35
2023-05-12T03:02:18.178Z,4.85
2023-05-12T03:04:46.363Z,5.30
2023-05-12T03:07:14.509Z,4.80
2023-05-12T03:09:42.848Z,4.80
2023-05-12T03:12:13.480Z,5.15
2023-05-12T03:14:41.837Z,5.07
2023-05-12T03:17:10.276Z,4.88
2023-05-12T03:19:39.205Z,4.82
2023-05-12T03:22:08.257Z,5.22
2023-05-12T03:24:36.631Z,4.57
2023-05-12T03:27:05.069Z,4.72
2023-05-12T03:29:34.568Z,4.88
2023-05-12T03:32:02.813Z,5.38
2023-05-12T03:34:31.557Z,5.93
2023-05-12T03:36:59.712Z,5.13
2023-05-12T03:39:29.104Z,5.63
2023-05-12T03:41:57.345Z,5.63
2023-05-12T03:44:25.474Z,4.97
2023-05-12T03:47:14.396Z,5.05
2023-05-12T03:49:42.733Z,5.05
2023-05-12T03:52:10.923Z,5.72
2023-05-12T03:54:39.141Z,5.82
2023-05-12T03:57:08.223Z,5.15
2023-05-12T03:59:36.531Z,5.60
2023-05-12T04:02:07.856Z,5.10
2023-05-12T04:04:36.798Z,5.00
2023-05-12T04:07:05.228Z,5.00
2023-05-12T04:09:33.569Z,5.47
2023-05-12T04:12:01.908Z,5.30
2023-05-12T04:14:41.718Z,5.35
2023-05-12T04:17:12.121Z,5.35
2023-05-12T04:19:40.357Z,5.38
2023-05-12T04:22:08.486Z,5.53
2023-05-12T04:24:38.533Z,5.72
2023-05-12T04:27:07.310Z,6.05
2023-05-12T04:29:36.285Z,5.68
2023-05-12T04:32:04.679Z,5.90
2023-05-12T04:34:34.329Z,5.90
2023-05-12T04:37:02.422Z,5.55
2023-05-12T04:39:30.530Z,5.90
2023-05-12T04:41:58.776Z,5.35
2023-05-12T04:44:26.976Z,5.93
2023-05-12T04:46:56.512Z,5.65
2023-05-12T04:49:24.786Z,5.82
2023-05-12T04:51:54.299Z,5.60
2023-05-12T04:54:22.932Z,5.85
2023-05-12T04:56:51.540Z,4.93
2023-05-12T04:59:20.728Z,4.75
2023-05-12T05:01:49.234Z,4.57
2023-05-12T05:04:17.547Z,4.15
2023-05-12T05:06:46.150Z,4.35
2023-05-12T05:09:16.764Z,4.50
2023-05-12T05:11:45.065Z,4.05
2023-05-12T05:14:13.199Z,4.30
2023-05-12T05:16:41.496Z,4.30
2023-05-12T05:19:20.073Z,3.47
2023-05-12T05:21:50.775Z,3.00
2023-05-12T05:24:20.533Z,3.67
2023-05-12T05:26:48.922Z,2.83
2023-05-12T05:29:17.219Z,2.80
2023-05-12T05:31:45.750Z,3.47
2023-05-12T05:34:14.199Z,3.55
2023-05-12T05:36:45.069Z,4.45
2023-05-12T05:39:14.018Z,5.47
2023-05-12T05:41:43.753Z,4.88
2023-05-12T05:44:11.953Z,4.68
2023-05-12T05:46:40.403Z,5.18
2023-05-12T05:49:08.808Z,4.82
2023-05-12T05:51:37.127Z,4.80
2023-05-12T05:54:06.471Z,4.35
2023-05-12T05:56:36.042Z,4.60
2023-05-12T05:59:06.285Z,4.60
2023-05-12T06:01:34.535Z,5.20
2023-05-12T06:04:02.887Z,4.93
2023-05-12T06:06:31.382Z,4.85
2023-05-12T06:08:59.693Z,4.68
2023-05-12T06:11:28.077Z,5.85
2023-05-12T06:13:57.152Z,4.50
2023-05-12T06:16:27.727Z,4.47
2023-05-12T06:18:56.050Z,4.97
2023-05-12T06:21:24.784Z,5.88
2023-05-12T06:23:54.845Z,5.35
2023-05-12T06:26:23.126Z,5.00
2023-05-12T06:28:51.497Z,5.20
2023-05-12T06:31:20.039Z,5.13
2023-05-12T06:33:50.499Z,4.55
2023-05-12T06:36:18.617Z,4.85
2023-05-12T06:38:47.118Z,4.90
2023-05-12T06:41:15.614Z,5.25
2023-05-12T06:43:43.878Z,5.32
2023-05-12T06:46:12.365Z,5.38
2023-05-12T06:48:40.568Z,5.35
2023-05-12T06:51:10.455Z,5.22
2023-05-12T06:53:38.686Z,5.00
2023-05-12T06:56:07.297Z,4.90
2023-05-12T06:58:35.519Z,5.18
2023-05-12T07:01:03.829Z,3.92
2023-05-12T07:03:33.603Z,4.45
2023-05-12T07:06:02.076Z,3.95
2023-05-12T07:08:32.207Z,4.57
2023-05-12T07:11:01.246Z,4.93
2023-05-12T07:13:29.605Z,4.35
2023-05-12T07:15:57.932Z,3.40
2023-05-12T07:18:26.629Z,3.10
2023-05-12T07:20:54.804Z,2.95
2023-05-12T07:23:23.334Z,3.28
2023-05-12T07:25:53.020Z,3.15
2023-05-12T07:28:21.157Z,3.85
2023-05-12T07:30:49.552Z,3.80
2023-05-12T07:33:17.801Z,4.00
2023-05-12T07:35:46.877Z,3.72
2023-05-12T07:38:15.575Z,3.88
2023-05-12T07:40:44.673Z,3.83
2023-05-12T07:43:17.409Z,3.63
2023-05-12T07:45:46.081Z,3.28
2023-05-12T07:48:14.662Z,3.95
2023-05-12T07:50:42.899Z,3.65
2023-05-12T07:53:11.222Z,5.43
2023-05-12T07:55:39.997Z,6.25
2023-05-12T07:58:08.128Z,4.45
2023-05-12T08:00:40.778Z,3.40
2023-05-12T08:03:09.574Z,4.65
2023-05-12T08:05:37.863Z,3.58
2023-05-12T08:08:06.800Z,3.65
2023-05-12T08:10:35.441Z,3.20
2023-05-12T08:13:03.696Z,3.35
2023-05-12T08:15:32.255Z,3.42
2023-05-12T08:18:02.123Z,3.20
2023-05-12T08:20:31.510Z,3.20
2023-05-12T08:23:00.036Z,3.05
2023-05-12T08:25:30.531Z,2.70
2023-05-12T08:27:59.823Z,3.35
2023-05-12T08:30:28.307Z,2.75
2023-05-12T08:32:57.124Z,3.35
2023-05-12T08:35:28.358Z,3.15
2023-05-12T08:37:57.370Z,2.80
2023-05-12T08:40:26.697Z,3.35
2023-05-12T08:43:01.816Z,2.78
2023-05-12T08:45:31.216Z,2.60
2023-05-12T08:48:00.999Z,2.85
2023-05-12T08:50:33.773Z,3.00
2023-05-12T08:53:05.484Z,2.90
2023-05-12T08:55:36.165Z,2.78
2023-05-12T08:58:04.976Z,3.15
2023-05-12T09:00:36.236Z,2.60
2023-05-12T09:03:07.858Z,3.17
2023-05-12T09:05:38.590Z,3.67
2023-05-12T09:08:07.791Z,3.30
2023-05-12T09:10:36.867Z,3.10
2023-05-12T09:13:14.683Z,3.30
2023-05-12T09:15:49.502Z,3.30
2023-05-12T09:18:17.778Z,3.30
2023-05-12T09:20:47.445Z,2.92
2023-05-12T09:23:17.225Z,3.63
2023-05-12T09:25:47.058Z,3.47
2023-05-12T09:28:16.194Z,3.75
2023-05-12T09:30:44.481Z,3.53
2023-05-12T09:33:14.609Z,3.47
2023-05-12T09:35:43.855Z,3.17
2023-05-12T09:38:16.592Z,4.03
2023-05-12T09:40:44.765Z,3.63
2023-05-12T09:43:15.303Z,3.30
2023-05-12T09:45:46.658Z,3.65
2023-05-12T09:48:15.016Z,3.50
2023-05-12T09:50:48.558Z,3.45
2023-05-12T09:53:19.628Z,3.88
2023-05-12T09:55:49.497Z,3.80
2023-05-12T09:58:18.891Z,4.03
2023-05-12T10:03:22.292Z,4.10
2023-05-12T10:05:51.902Z,3.70
2023-05-12T10:08:28.709Z,4.28
2023-05-12T10:10:59.426Z,3.47
2023-05-12T10:13:27.833Z,3.72
2023-05-12T10:15:58.168Z,3.78
2023-05-12T10:18:43.817Z,3.53
2023-05-12T10:21:20.881Z,3.67
2023-05-12T10:23:52.217Z,3.15
2023-05-12T10:26:21.546Z,3.10
2023-05-12T10:28:50.967Z,3.45
2023-05-12T10:31:20.369Z,3.28
2023-05-12T10:33:58.644Z,3.47
2023-05-12T10:36:27.806Z,3.20
2023-05-12T10:39:05.683Z,3.35
2023-05-12T10:41:35.055Z,3.08
2023-05-12T10:44:03.713Z,2.90
2023-05-12T10:46:32.231Z,3.28
2023-05-12T10:49:04.095Z,2.90
2023-05-12T10:51:33.509Z,3.13
2023-05-12T10:54:09.132Z,2.58
2023-05-12T10:56:45.613Z,2.72
2023-05-12T10:59:17.691Z,2.85
2023-05-12T11:02:00.193Z,2.97
2023-05-12T11:04:44.687Z,2.72
2023-05-12T11:07:16.557Z,2.90
2023-05-12T11:09:57.855Z,2.92
2023-05-12T11:12:30.248Z,2.70
2023-05-12T11:15:02.399Z,2.63
2023-05-12T11:17:30.988Z,2.92
2023-05-12T11:20:00.915Z,2.53
2023-05-12T11:22:29.576Z,3.05
2023-05-12T11:24:59.438Z,2.70
2023-05-12T11:27:28.221Z,2.40
2023-05-12T11:30:00.977Z,2.85
2023-05-12T11:32:30.472Z,2.80
2023-05-12T11:35:10.071Z,2.60
2023-05-12T11:37:39.581Z,3.00
2023-05-12T11:40:20.991Z,2.90
2023-05-12T11:42:52.464Z,2.55
2023-05-12T11:45:23.117Z,3.35
2023-05-12T11:47:51.610Z,2.53
2023-05-12T11:50:24.490Z,3.03
2023-05-12T11:52:53.882Z,2.53
2023-05-12T11:55:25.477Z,3.28
2023-05-12T11:58:01.814Z,2.58
2023-05-12T12:00:32.358Z,2.78
2023-05-12T12:03:08.494Z,3.20
2023-05-12T12:05:37.719Z,3.13
2023-05-12T12:08:08.259Z,2.80
2023-05-12T12:10:38.188Z,3.03
2023-05-12T12:13:06.635Z,2.83
2023-05-12T12:15:35.575Z,2.92
2023-05-12T12:18:04.524Z,3.10
2023-05-12T12:20:32.866Z,2.85
2023-05-12T12:23:01.130Z,2.65
2023-05-12T12:25:31.542Z,2.80
2023-05-12T12:28:01.179Z,3.00
2023-05-12T12:30:29.504Z,3.20
2023-05-12T12:32:57.816Z,3.00
2023-05-12T12:35:26.131Z,3.38
2023-05-12T12:37:54.413Z,2.78
2023-05-12T12:40:22.708Z,3.10
2023-05-12T12:42:50.889Z,2.88
2023-05-12T12:45:20.798Z,2.80
2023-05-12T12:47:52.228Z,3.00
2023-05-12T12:50:20.795Z,2.53
2023-05-12T12:52:49.200Z,3.00
2023-05-12T12:55:17.698Z,2.90
2023-05-12T12:57:46.133Z,2.63
2023-05-12T13:00:15.282Z,3.15
2023-05-12T13:02:45.062Z,2.80
2023-05-12T13:05:13.421Z,2.70
2023-05-12T13:07:41.926Z,2.90
2023-05-12T13:10:12.227Z,2.63
2023-05-12T13:12:41.597Z,3.13
2023-05-12T13:15:11.666Z,3.38
2023-05-12T13:17:40.636Z,2.95
2023-05-12T13:20:11.436Z,2.75
2023-05-12T13:22:39.866Z,2.83
2023-05-12T13:25:09.375Z,3.05
2023-05-12T13:27:38.068Z,2.90
2023-05-12T13:30:09.129Z,2.65
2023-05-12T13:32:38.824Z,3.33
2023-05-12T13:35:08.857Z,2.60
2023-05-12T13:37:39.236Z,3.10
2023-05-12T13:40:09.588Z,3.10
2023-05-12T13:42:38.379Z,2.88
2023-05-12T13:45:09.255Z,2.75
2023-05-12T13:47:37.764Z,2.83
2023-05-12T13:50:07.697Z,3.08
2023-05-12T13:52:36.071Z,2.83
2023-05-12T13:55:06.422Z,2.78
2023-05-12T13:57:34.879Z,3.20
2023-05-12T14:00:03.342Z,2.85
2023-05-12T14:02:31.967Z,2.45
2023-05-12T14:05:00.392Z,2.40
2023-05-12T14:07:29.345Z,3.08
2023-05-12T14:09:57.930Z,2.90
2023-05-12T14:12:27.864Z,2.28
2023-05-12T14:15:04.508Z,3.13
2023-05-12T14:17:41.268Z,2.63
2023-05-12T14:20:11.676Z,2.50
2023-05-12T14:22:39.953Z,2.97
2023-05-12T14:25:09.078Z,2.67
2023-05-12T14:27:38.903Z,2.88
2023-05-12T14:30:09.271Z,2.67
2023-05-12T14:32:37.678Z,2.63
2023-05-12T14:35:08.289Z,2.97
2023-05-12T14:37:37.673Z,2.80
2023-05-12T14:40:07.864Z,2.67
2023-05-12T14:42:36.105Z,2.80
2023-05-12T14:45:06.623Z,2.67
2023-05-12T14:47:35.080Z,2.75
2023-05-12T14:50:03.982Z,3.00
2023-05-12T14:52:38.251Z,2.63
2023-05-12T14:55:11.427Z,3.08
2023-05-12T14:57:39.682Z,2.63
2023-05-12T15:00:12.343Z,2.35
2023-05-12T15:02:41.434Z,2.60
2023-05-12T15:05:11.971Z,2.45
2023-05-12T15:07:40.940Z,2.20
2023-05-12T15:10:09.725Z,2.13
2023-05-12T15:12:38.283Z,2.47
2023-05-12T15:15:08.989Z,2.33
2023-05-12T15:17:38.874Z,2.60
2023-05-12T15:20:08.362Z,2.60
2023-05-12T15:22:39.764Z,2.47
2023-05-12T15:25:09.539Z,2.28
2023-05-12T15:27:38.269Z,2.85
2023-05-12T15:30:07.972Z,2.30
2023-05-12T15:32:36.349Z,2.13
2023-05-12T15:35:07.283Z,2.53
2023-05-12T15:37:36.203Z,2.40
2023-05-12T15:40:05.320Z,2.30
2023-05-12T15:42:33.690Z,2.20
2023-05-12T15:45:01.902Z,2.22
2023-05-12T15:47:30.146Z,2.38
2023-05-12T15:49:58.632Z,2.08
2023-05-12T15:52:28.279Z,2.00
2023-05-12T15:54:56.695Z,2.58
2023-05-12T15:57:25.083Z,2.40
2023-05-12T15:59:58.734Z,2.17
2023-05-12T16:02:27.768Z,2.65
2023-05-12T16:04:56.140Z,2.45
2023-05-12T16:07:29.383Z,2.45
2023-05-12T16:09:59.420Z,2.90
2023-05-12T16:12:27.580Z,2.80
2023-05-12T16:14:55.741Z,2.35
2023-05-12T16:17:23.991Z,2.47
2023-05-12T16:19:53.521Z,2.70
2023-05-12T16:22:23.386Z,2.30
2023-05-12T16:24:51.495Z,2.50
2023-05-12T16:27:21.117Z,2.40
2023-05-12T16:29:50.498Z,2.60
2023-05-12T16:32:18.900Z,2.38
2023-05-12T16:34:47.134Z,2.42
2023-05-12T16:37:15.302Z,2.45
2023-05-12T16:39:43.701Z,2.25
2023-05-12T16:42:13.173Z,2.70
2023-05-12T16:44:42.872Z,2.40
2023-05-12T16:47:11.179Z,2.70
2023-05-12T16:49:39.485Z,2.58
2023-05-12T16:52:09.136Z,2.50
2023-05-12T16:54:39.192Z,2.55
2023-05-12T16:57:07.714Z,2.28
2023-05-12T16:59:36.840Z,2.50
2023-05-12T17:02:08.314Z,3.63
2023-05-12T17:04:37.662Z,3.17
2023-05-12T17:07:06.222Z,2.33
2023-05-12T17:09:34.641Z,3.42
2023-05-12T17:12:04.323Z,2.78
2023-05-12T17:14:33.311Z,2.30
2023-05-12T17:17:01.680Z,2.53
2023-05-12T17:19:31.309Z,2.45
2023-05-12T17:21:59.596Z,2.60
2023-05-12T17:24:28.230Z,2.72
2023-05-12T17:26:56.468Z,2.60
2023-05-12T17:29:25.222Z,2.60
2023-05-12T17:31:53.717Z,2.17
2023-05-12T17:34:22.488Z,2.65
2023-05-12T17:36:52.580Z,2.50
2023-05-12T17:39:21.250Z,2.80
2023-05-12T17:41:49.426Z,2.83
2023-05-12T17:44:17.595Z,2.75
2023-05-12T17:46:46.218Z,2.63
2023-05-12T17:49:14.548Z,2.65
2023-05-12T17:51:44.432Z,2.78
2023-05-12T17:54:14.758Z,2.58
2023-05-12T17:56:44.650Z,2.95
2023-05-12T17:59:13.046Z,2.88
2023-05-12T18:01:41.795Z,2.42
2023-05-12T18:04:10.369Z,2.80
2023-05-12T18:06:38.680Z,2.75
2023-05-12T18:09:07.354Z,2.78
2023-05-12T18:11:37.136Z,2.80
2023-05-12T18:14:06.125Z,2.90
2023-05-12T18:16:35.124Z,2.55
2023-05-12T18:19:04.968Z,2.72
2023-05-12T18:21:33.765Z,3.00
2023-05-12T18:24:01.974Z,2.88
2023-05-12T18:26:30.864Z,2.47
2023-05-12T18:29:00.592Z,2.53
2023-05-12T18:31:29.500Z,3.20
2023-05-12T18:33:57.866Z,3.28
2023-05-12T18:36:28.960Z,3.15
2023-05-12T18:39:00.009Z,2.83
2023-05-12T18:41:28.868Z,2.78
2023-05-12T18:43:57.138Z,3.38
2023-05-12T18:46:27.177Z,2.67
2023-05-12T18:48:55.698Z,3.22
2023-05-12T18:51:24.236Z,2.55
2023-05-12T18:53:52.876Z,2.33
2023-05-12T18:56:21.612Z,2.97
2023-05-12T18:58:50.048Z,2.83
2023-05-12T19:01:18.484Z,2.40
2023-05-12T19:03:48.661Z,2.88
2023-05-12T19:06:17.396Z,2.63
2023-05-12T19:08:45.813Z,2.75
2023-05-12T19:11:14.112Z,2.40
2023-05-12T19:13:45.327Z,2.95
2023-05-12T19:16:13.736Z,2.90
2023-05-12T19:18:42.306Z,3.03
2023-05-12T19:21:12.426Z,3.00
2023-05-12T19:23:41.788Z,3.25
2023-05-12T19:26:11.084Z,2.92
2023-05-12T19:28:39.744Z,3.30
2023-05-12T19:31:08.535Z,3.08
2023-05-12T19:33:36.841Z,3.05
2023-05-12T19:36:05.551Z,3.58
2023-05-12T19:38:35.688Z,3.33
2023-05-12T19:41:04.164Z,3.38
2023-05-12T19:43:32.915Z,3.58
2023-05-12T19:46:01.250Z,3.30
2023-05-12T19:48:29.574Z,3.58
2023-05-12T19:50:57.913Z,3.20
2023-05-12T19:53:26.755Z,3.53
2023-05-12T19:55:56.837Z,3.60
2023-05-12T19:58:25.608Z,2.70
2023-05-12T20:00:54.219Z,3.15
2023-05-12T20:03:22.887Z,2.70
2023-05-12T20:05:51.604Z,2.67
2023-05-12T20:08:20.276Z,2.67
2023-05-12T20:10:48.536Z,3.45
2023-05-12T20:13:18.850Z,3.92
2023-05-12T20:15:47.586Z,2.97
2023-05-12T20:18:16.970Z,2.72
2023-05-12T20:20:45.318Z,2.55
2023-05-12T20:23:13.787Z,2.85
2023-05-12T20:25:42.301Z,3.17
2023-05-12T20:28:11.748Z,3.20
2023-05-12T20:30:42.141Z,2.78
2023-05-12T20:33:10.469Z,2.90
2023-05-12T20:35:38.906Z,2.95
2023-05-12T20:38:07.650Z,2.95
2023-05-12T20:40:35.969Z,2.80
2023-05-12T20:43:04.326Z,2.60
2023-05-12T20:45:32.832Z,2.83
2023-05-12T20:48:02.841Z,3.05
2023-05-12T20:50:31.365Z,2.90
2023-05-12T20:52:59.653Z,2.97
2023-05-12T20:55:27.990Z,3.33
2023-05-12T20:58:10.570Z,3.00
2023-05-12T21:00:39.431Z,3.10
2023-05-12T21:03:14.521Z,2.70
2023-05-12T21:05:50.644Z,2.90
2023-05-12T21:08:19.415Z,3.08
2023-05-12T21:10:48.372Z,3.05
2023-05-12T21:13:18.131Z,3.30
2023-05-12T21:15:48.182Z,2.90
2023-05-12T21:18:22.560Z,2.90
2023-05-12T21:20:51.533Z,3.75
2023-05-12T21:23:24.423Z,2.83
2023-05-12T21:25:54.765Z,3.00
2023-05-12T21:28:23.638Z,3.13
2023-05-12T21:30:52.413Z,3.00
2023-05-12T21:33:22.601Z,3.30
2023-05-12T21:35:51.060Z,3.28
2023-05-12T21:38:25.663Z,2.80
2023-05-12T21:40:56.280Z,3.00
2023-05-12T21:43:25.696Z,2.95
2023-05-12T21:45:53.895Z,2.90
2023-05-12T21:48:24.901Z,3.28
2023-05-12T21:51:01.226Z,3.05
2023-05-12T21:53:29.970Z,3.20
2023-05-12T21:55:58.263Z,3.10
2023-05-12T21:58:26.737Z,3.50
2023-05-12T22:00:55.122Z,2.78
2023-05-12T22:03:25.413Z,3.25
2023-05-12T22:05:53.816Z,3.17
2023-05-12T22:08:22.588Z,3.30
2023-05-12T22:10:51.132Z,3.20
2023-05-12T22:13:19.488Z,2.90
2023-05-12T22:15:49.299Z,2.97
2023-05-12T22:18:18.105Z,3.28
2023-05-12T22:20:47.734Z,3.03
2023-05-12T22:23:16.109Z,3.42
2023-05-12T22:25:44.598Z,2.75
2023-05-12T22:28:12.866Z,3.10
2023-05-12T22:30:41.654Z,2.72
2023-05-12T22:33:10.108Z,3.20
2023-05-12T22:35:38.606Z,2.85
2023-05-12T22:38:08.477Z,3.10
2023-05-12T22:40:36.732Z,3.15
2023-05-12T22:43:05.448Z,2.97
2023-05-12T22:45:33.975Z,2.50
2023-05-12T22:48:02.487Z,3.22
2023-05-12T22:50:30.899Z,2.92
2023-05-12T22:52:59.179Z,2.97
2023-05-12T22:55:30.817Z,3.30
2023-05-12T22:57:59.826Z,3.42
2023-05-12T23:00:28.571Z,3.10
2023-05-12T23:02:56.799Z,3.38
2023-05-12T23:05:25.258Z,3.22
2023-05-12T23:07:53.578Z,3.50
2023-05-12T23:10:22.164Z,3.40
2023-05-12T23:12:55.872Z,3.17
2023-05-12T23:15:25.119Z,3.15
2023-05-12T23:17:53.648Z,3.47
2023-05-12T23:20:24.735Z,2.97
2023-05-12T23:22:53.317Z,3.00
2023-05-12T23:25:21.900Z,3.42
2023-05-12T23:27:51.495Z,3.33
2023-05-12T23:30:20.266Z,3.15
2023-05-12T23:32:50.400Z,3.03
2023-05-12T23:35:18.837Z,2.85
2023-05-12T23:37:47.551Z,3.33
2023-05-12T23:40:19.256Z,3.45
2023-05-12T23:42:47.654Z,3.25
2023-05-12T23:45:18.674Z,3.55
2023-05-12T23:47:47.096Z,4.35
2023-05-12T23:50:15.521Z,2.97
2023-05-12T23:52:43.759Z,3.20
2023-05-12T23:55:12.792Z,2.97
2023-05-12T23:57:41.200Z,3.05
